Time;durP1;ratioP1;P1;durP2;ratioP2;P2;SDS_P1;SDS_P2;PMS_P1;PMS_P2;Temp;Humidity;BMP_temperature;BMP_pressure;BME280_temperature;BME280_humidity;BME280_pressure;Samples;Min_cycle;Max_cycle;Signal;HPM_P1;HPM_P2
2021/09/05 00:00:36;;;;;;;13.20;10.20;;;;;;;15.09;84.16;100686.70;2864253;83;20960;-64
2021/09/05 00:04:39;;;;;;;15.75;10.28;;;;;;;15.06;84.25;100687.48;2864093;83;21020;-64
2021/09/05 00:09:18;;;;;;;15.13;8.93;;;;;;;15.08;84.16;100682.34;2864045;83;21034;-64
2021/09/05 00:13:20;;;;;;;12.53;9.40;;;;;;;14.98;83.56;100685.05;2864042;83;20984;-64
2021/09/05 00:17:22;;;;;;;14.10;10.90;;;;;;;14.90;83.90;100689.44;2859008;83;20988;-63
2021/09/05 00:21:45;;;;;;;17.25;10.32;;;;;;;14.87;83.67;100689.72;2854904;83;20987;-64
2021/09/05 00:25:47;;;;;;;12.73;9.05;;;;;;;14.85;83.49;100695.21;2854930;78;21027;-64
2021/09/05 00:29:48;;;;;;;16.48;9.00;;;;;;;14.80;83.18;100694.81;2854807;83;21004;-64
2021/09/05 00:34:11;;;;;;;12.13;9.20;;;;;;;14.75;83.20;100699.75;2854993;83;20960;-64
2021/09/05 00:38:13;;;;;;;11.12;7.22;;;;;;;14.68;83.22;100709.64;2854806;83;20964;-64
2021/09/05 00:42:34;;;;;;;15.10;8.20;;;;;;;14.63;83.07;100708.37;2854837;83;20952;-64
2021/09/05 00:46:38;;;;;;;13.40;7.85;;;;;;;14.59;82.96;100705.16;2853060;83;21014;-64
2021/09/05 00:50:52;;;;;;;9.98;7.33;;;;;;;14.54;83.23;100711.41;2824807;83;21020;-64
2021/09/05 00:54:54;;;;;;;13.00;9.18;;;;;;;14.56;83.14;100713.48;2868048;83;21047;-64
2021/09/05 00:58:59;;;;;;;23.95;12.88;;;;;;;14.60;83.12;100712.20;2854797;83;21011;-64
2021/09/05 01:03:00;;;;;;;28.15;14.35;;;;;;;14.61;82.78;100719.72;2854905;83;20959;-64
2021/09/05 01:07:04;;;;;;;19.25;10.90;;;;;;;14.58;82.80;100722.20;2854846;83;21002;-64
2021/09/05 01:11:05;;;;;;;13.08;8.95;;;;;;;14.54;82.56;100724.79;2854899;81;20990;-64
2021/09/05 01:15:08;;;;;;;9.88;8.43;;;;;;;14.45;82.53;100730.52;2842851;83;21026;-64
2021/09/05 01:19:16;;;;;;;12.98;8.45;;;;;;;14.34;82.76;100738.16;2910776;82;21003;-64
2021/09/05 01:23:37;;;;;;;12.07;7.72;;;;;;;14.25;83.15;100741.21;2912630;82;20967;-64
2021/09/05 01:27:39;;;;;;;13.78;9.00;;;;;;;14.14;83.39;100738.14;2913083;81;20987;-64
2021/09/05 01:31:45;;;;;;;11.53;8.68;;;;;;;14.04;83.84;100744.45;2913129;80;21007;-64
2021/09/05 01:40:04;;;;;;;10.30;6.80;;;;;;;13.91;84.52;100750.05;2804227;82;69637;-69
2021/09/05 01:44:09;;;;;;;9.28;7.40;;;;;;;13.82;84.71;100753.91;2774586;85;20958;-69
2021/09/05 01:48:11;;;;;;;10.48;6.60;;;;;;;13.76;84.76;100760.29;2755657;86;21977;-68
2021/09/05 01:52:12;;;;;;;14.78;7.22;;;;;;;13.70;85.10;100753.64;2804076;84;20962;-68
2021/09/05 01:56:14;;;;;;;12.55;7.90;;;;;;;13.68;85.17;100766.30;2804126;84;21201;-68
2021/09/05 02:00:16;;;;;;;9.85;7.22;;;;;;;13.69;85.19;100758.64;2804184;84;20974;-68
2021/09/05 02:04:18;;;;;;;10.08;6.17;;;;;;;13.67;84.97;100765.47;2774821;85;20969;-69
2021/09/05 02:08:20;;;;;;;17.17;9.08;;;;;;;13.67;85.03;100769.48;2755619;86;21045;-68
2021/09/05 02:12:21;;;;;;;16.12;8.05;;;;;;;13.67;84.92;100768.63;2774723;86;21025;-69
2021/09/05 02:16:23;;;;;;;11.50;7.90;;;;;;;13.63;84.93;100773.38;2755471;86;21025;-68
2021/09/05 02:20:25;;;;;;;13.68;8.18;;;;;;;13.69;84.78;100773.34;2774844;86;21009;-68
2021/09/05 02:24:27;;;;;;;9.45;5.62;;;;;;;13.68;84.46;100779.20;2755628;86;21483;-69
2021/09/05 02:28:28;;;;;;;10.85;6.25;;;;;;;13.68;84.09;100780.53;2774939;86;21041;-69
2021/09/05 02:32:30;;;;;;;10.15;5.50;;;;;;;13.63;83.94;100780.06;2755697;86;20982;-69
2021/09/05 02:36:32;;;;;;;9.18;5.28;;;;;;;13.57;83.66;100783.28;2774675;85;21029;-69
2021/09/05 02:40:33;;;;;;;7.83;5.08;;;;;;;13.50;83.51;100780.29;2755321;86;21034;-69
2021/09/05 02:44:36;;;;;;;6.60;4.97;;;;;;;13.44;83.23;100788.84;2774951;85;21061;-69
2021/09/05 02:48:38;;;;;;;10.30;5.05;;;;;;;13.36;83.36;100785.94;2755664;86;21033;-69
2021/09/05 02:52:39;;;;;;;8.25;5.15;;;;;;;13.33;83.53;100788.41;2774917;85;21025;-69
2021/09/05 02:56:41;;;;;;;8.33;5.47;;;;;;;13.30;83.70;100788.67;2755988;86;21022;-68
2021/09/05 03:00:43;;;;;;;6.42;4.60;;;;;;;13.33;83.60;100786.20;2775307;86;21088;-69
2021/09/05 03:04:44;;;;;;;12.50;8.73;;;;;;;13.34;83.45;100794.58;2756032;86;21069;-69
2021/09/05 03:08:46;;;;;;;11.65;6.55;;;;;;;13.34;83.53;100798.58;2775093;85;21033;-68
2021/09/05 03:12:48;;;;;;;6.20;4.78;;;;;;;13.35;83.54;100798.47;2755965;86;21018;-69
2021/09/05 03:16:49;;;;;;;11.68;5.08;;;;;;;13.38;83.14;100796.03;2774998;86;20990;-68
2021/09/05 03:20:51;;;;;;;8.33;4.72;;;;;;;13.35;82.96;100797.60;2755567;86;20994;-69
2021/09/05 03:24:53;;;;;;;11.48;6.60;;;;;;;13.33;82.87;100800.42;2774782;86;21021;-69
2021/09/05 03:28:55;;;;;;;5.37;4.53;;;;;;;13.29;82.92;100804.34;2755547;86;21023;-69
2021/09/05 03:32:57;;;;;;;11.22;6.00;;;;;;;13.27;83.10;100810.31;2774789;85;21017;-69
2021/09/05 03:36:59;;;;;;;15.65;6.75;;;;;;;13.26;83.07;100808.11;2756057;85;21049;-68
2021/09/05 03:45:27;;;;;;;6.78;4.70;;;;;;;13.07;83.04;100818.66;2916590;81;21085;-64
2021/09/05 03:49:30;;;;;;;6.58;4.53;;;;;;;12.96;83.65;100825.73;2919740;81;20959;-64
2021/09/05 03:53:32;;;;;;;5.95;4.37;;;;;;;12.91;83.93;100829.78;2919817;81;20935;-64
2021/09/05 03:57:35;;;;;;;5.50;4.17;;;;;;;12.94;83.66;100829.02;2951155;80;20982;-63
2021/09/05 04:01:37;;;;;;;6.28;3.70;;;;;;;12.92;83.86;100830.98;2950951;80;20924;-64
2021/09/05 04:06:02;;;;;;;6.80;4.58;;;;;;;12.97;83.68;100835.47;2950993;80;20962;-64
2021/09/05 04:10:11;;;;;;;5.75;3.95;;;;;;;12.98;83.31;100834.49;2951035;80;20951;-64
2021/09/05 04:14:18;;;;;;;8.20;4.22;;;;;;;12.96;83.33;100847.09;2950974;80;21011;-64
2021/09/05 04:18:20;;;;;;;6.75;4.05;;;;;;;12.99;83.38;100850.01;2951045;79;20943;-64
2021/09/05 04:22:52;;;;;;;5.70;3.10;;;;;;;12.94;83.36;100847.72;2951017;80;21021;-64
2021/09/05 04:26:54;;;;;;;6.70;3.70;;;;;;;12.97;83.47;100850.16;2951122;79;20947;-64
2021/09/05 04:31:18;;;;;;;5.58;4.25;;;;;;;12.94;83.31;100848.22;2951049;80;20986;-64
2021/09/05 04:35:21;;;;;;;7.00;4.53;;;;;;;12.94;83.66;100859.73;2950639;80;20959;-64
2021/09/05 04:39:23;;;;;;;9.18;4.17;;;;;;;12.92;83.45;100865.69;2950470;80;20987;-64
2021/09/05 04:43:25;;;;;;;5.37;4.33;;;;;;;12.93;84.47;100874.06;2948011;79;21019;-64
2021/09/05 04:47:27;;;;;;;7.85;4.50;;;;;;;13.34;84.58;100869.39;2946052;80;21002;-64
2021/09/05 04:51:30;;;;;;;9.45;4.87;;;;;;;13.77;83.63;100874.27;2946008;81;20959;-64
2021/09/05 04:55:31;;;;;;;10.28;5.75;;;;;;;14.18;82.15;100877.01;2945934;80;20982;-64
2021/09/05 05:00:05;;;;;;;14.85;6.97;;;;;;;14.61;80.71;100876.34;2945945;81;20967;-64
2021/09/05 05:04:06;;;;;;;9.98;6.58;;;;;;;15.05;79.58;100888.06;2946026;80;20975;-63
2021/09/05 05:08:08;;;;;;;5.78;4.58;;;;;;;15.37;77.46;100890.95;2945858;81;21045;-64
2021/09/05 05:12:12;;;;;;;8.40;4.30;;;;;;;15.62;76.48;100899.38;2945952;80;20969;-64
2021/09/05 05:16:14;;;;;;;7.45;4.12;;;;;;;15.79;75.55;100897.30;2946028;80;20963;-63
2021/09/05 05:20:17;;;;;;;7.83;4.25;;;;;;;15.96;74.54;100902.94;2945998;81;20920;-64
2021/09/05 05:24:19;;;;;;;10.82;6.05;;;;;;;16.21;74.13;100900.09;2945792;80;20979;-63
2021/09/05 05:28:20;;;;;;;9.95;5.92;;;;;;;16.50;73.13;100909.83;2945955;80;20975;-63
2021/09/05 05:32:34;;;;;;;5.85;3.55;;;;;;;16.81;72.20;100914.89;2945969;80;21010;-63
2021/09/05 05:36:36;;;;;;;5.20;3.50;;;;;;;16.96;71.42;100921.07;2945864;80;21018;-64
2021/09/05 05:40:38;;;;;;;5.90;3.72;;;;;;;17.13;71.16;100918.92;2920669;80;20982;-63
2021/09/05 05:44:40;;;;;;;7.15;4.05;;;;;;;17.32;70.18;100922.97;2877035;82;21010;-63
2021/09/05 05:48:42;;;;;;;7.08;4.30;;;;;;;17.41;69.93;100920.68;2876412;82;20970;-63
2021/09/05 05:52:44;;;;;;;7.35;3.12;;;;;;;17.52;69.64;100922.28;2863784;83;20983;-63
2021/09/05 05:57:07;;;;;;;10.48;5.33;;;;;;;17.82;68.90;100926.36;2878499;82;20960;-64
2021/09/05 06:01:09;;;;;;;5.28;3.80;;;;;;;18.06;68.37;100938.31;2885055;82;21043;-63
2021/09/05 06:05:19;;;;;;;3.90;3.30;;;;;;;18.27;66.67;100939.77;2876838;81;20959;-63
2021/09/05 06:09:21;;;;;;;6.35;3.37;;;;;;;18.38;66.39;100940.84;2876868;83;20970;-64
2021/09/05 06:13:23;;;;;;;6.58;4.05;;;;;;;18.52;65.77;100938.04;2885116;82;20963;-63
2021/09/05 06:17:24;;;;;;;5.92;3.60;;;;;;;18.63;65.34;100944.98;2867277;83;21014;-63
2021/09/05 06:21:28;;;;;;;6.50;3.58;;;;;;;18.63;65.21;100942.80;2867365;83;21002;-64
2021/09/05 06:25:30;;;;;;;5.83;3.22;;;;;;;18.63;64.89;100949.02;2867290;83;20963;-64
2021/09/05 06:29:33;;;;;;;4.80;3.62;;;;;;;18.59;64.65;100946.84;2867309;81;20959;-64
2021/09/05 06:33:34;;;;;;;7.47;4.05;;;;;;;18.54;65.29;100954.05;2867265;81;20999;-64
2021/09/05 06:37:36;;;;;;;4.70;3.95;;;;;;;18.55;65.02;100959.26;2867049;81;21018;-63
2021/09/05 06:41:38;;;;;;;6.75;4.28;;;;;;;18.44;65.15;100957.36;2867336;83;20979;-64
2021/09/05 06:45:39;;;;;;;12.70;3.65;;;;;;;18.47;65.29;100956.55;2867037;81;21025;-63
2021/09/05 06:49:55;;;;;;;7.58;4.50;;;;;;;18.56;64.99;100961.47;2867307;81;20975;-64
2021/09/05 06:53:57;;;;;;;3.75;2.60;;;;;;;18.62;66.17;100962.16;2867373;81;21010;-64
2021/09/05 06:58:02;;;;;;;10.40;4.42;;;;;;;18.75;65.20;100966.25;2902413;82;21018;-64
2021/09/05 07:02:04;;;;;;;6.27;5.07;;;;;;;18.68;64.97;100963.36;2902784;80;21002;-64
2021/09/05 07:06:06;;;;;;;5.58;4.47;;;;;;;18.59;65.04;100968.39;2928285;81;21015;-64
2021/09/05 07:10:08;;;;;;;7.33;5.28;;;;;;;18.38;65.48;100969.64;2902486;81;20971;-63
2021/09/05 07:14:21;;;;;;;6.70;3.60;;;;;;;18.31;65.75;100984.73;2902314;82;20923;-64
2021/09/05 07:18:23;;;;;;;5.62;3.80;;;;;;;18.27;65.93;100981.02;2941014;79;20944;-63
2021/09/05 07:22:25;;;;;;;5.00;3.33;;;;;;;18.37;65.81;100994.86;2928353;81;20959;-64
2021/09/05 07:26:27;;;;;;;6.33;4.30;;;;;;;18.51;65.46;100992.92;2928218;81;21018;-64
2021/09/05 07:30:28;;;;;;;6.45;4.15;;;;;;;18.61;64.68;100998.19;2928582;81;21007;-64
2021/09/05 07:34:30;;;;;;;5.10;3.10;;;;;;;18.59;64.12;101006.94;2928482;81;21010;-64
2021/09/05 07:38:32;;;;;;;7.47;3.60;;;;;;;18.54;64.71;101008.76;2909235;80;71292;-69
2021/09/05 07:42:34;;;;;;;8.03;3.50;;;;;;;18.55;64.02;101013.66;2859337;81;21064;-70
2021/09/05 07:46:36;;;;;;;6.95;4.17;;;;;;;18.55;64.55;101017.70;2915939;81;20994;-69
2021/09/05 07:50:38;;;;;;;8.48;4.37;;;;;;;18.61;64.04;101020.27;2912801;81;20954;-70
2021/09/05 07:54:40;;;;;;;5.10;4.42;;;;;;;18.64;64.71;101022.11;2906657;81;21092;-70
2021/09/05 07:58:42;;;;;;;6.37;4.65;;;;;;;18.80;64.37;101024.55;2907092;80;21025;-70
2021/09/05 08:02:44;;;;;;;7.78;4.30;;;;;;;18.91;64.25;101027.45;2907426;80;21026;-73
2021/09/05 08:11:34;;;;;;;6.72;4.90;;;;;;;19.07;63.93;101028.06;2802370;83;21075;-63
2021/09/05 08:15:36;;;;;;;6.37;5.17;;;;;;;19.10;63.85;101036.64;2802655;84;20980;-63
2021/09/05 08:19:38;;;;;;;6.12;4.03;;;;;;;19.22;64.62;101049.31;2802482;84;20928;-62
2021/09/05 08:23:45;;;;;;;6.67;4.92;;;;;;;19.35;62.93;101041.27;2802613;85;21012;-62
2021/09/05 08:27:48;;;;;;;7.70;4.03;;;;;;;19.33;63.05;101048.16;2802600;84;21042;-64
2021/09/05 08:31:49;;;;;;;8.28;4.45;;;;;;;19.49;63.99;101051.42;2802583;84;20971;-62
2021/09/05 08:35:51;;;;;;;5.20;3.83;;;;;;;19.66;62.88;101052.80;2802483;85;21039;-62
2021/09/05 08:39:53;;;;;;;5.35;4.10;;;;;;;19.77;62.50;101052.45;2802017;84;20980;-64
2021/09/05 08:43:57;;;;;;;3.83;3.25;;;;;;;19.82;62.08;101056.00;2802501;83;21003;-64
2021/09/05 08:48:01;;;;;;;5.50;3.08;;;;;;;19.99;62.11;101051.47;2802408;83;21030;-62
2021/09/05 08:52:05;;;;;;;8.20;4.53;;;;;;;20.18;60.88;101051.64;2802614;83;21004;-64
2021/09/05 08:56:07;;;;;;;3.70;2.83;;;;;;;20.29;61.40;101057.19;2802618;83;20936;-61
2021/09/05 09:00:24;;;;;;;5.08;3.85;;;;;;;20.48;60.52;101057.83;2802557;83;20924;-62
2021/09/05 09:04:26;;;;;;;9.08;3.98;;;;;;;20.52;59.52;101064.57;2802906;83;20979;-61
2021/09/05 09:08:28;;;;;;;6.70;3.58;;;;;;;20.65;59.87;101069.43;2811288;83;21032;-62
2021/09/05 09:12:43;;;;;;;5.70;3.30;;;;;;;20.78;59.27;101071.58;2829452;83;21020;-62
2021/09/05 09:16:52;;;;;;;5.35;2.87;;;;;;;20.88;58.72;101068.21;2826361;84;20988;-63
2021/09/05 09:20:55;;;;;;;3.75;2.50;;;;;;;21.00;58.62;101063.75;2829047;83;20980;-62
2021/09/05 09:25:00;;;;;;;6.67;3.30;;;;;;;21.09;56.55;101073.53;2829060;83;20972;-62
2021/09/05 09:29:01;;;;;;;6.10;3.33;;;;;;;21.13;55.29;101065.39;2829170;84;21047;-62
2021/09/05 09:33:03;;;;;;;7.85;4.42;;;;;;;21.19;54.83;101055.20;2829279;84;21004;-62
2021/09/05 09:37:23;;;;;;;4.40;2.40;;;;;;;21.22;56.61;101057.58;2829153;83;20980;-62
2021/09/05 09:41:43;;;;;;;4.87;2.90;;;;;;;21.45;55.95;101061.32;2829041;84;20980;-63
2021/09/05 09:45:46;;;;;;;4.55;3.15;;;;;;;21.48;53.82;101055.05;2829168;84;20999;-62
2021/09/05 09:49:51;;;;;;;4.30;2.50;;;;;;;21.48;53.47;101047.42;2829092;84;21016;-62
2021/09/05 09:53:54;;;;;;;5.28;4.30;;;;;;;21.65;55.00;101046.84;2829343;83;20964;-62
2021/09/05 09:57:58;;;;;;;6.70;2.40;;;;;;;21.75;54.88;101050.67;2829225;84;20984;-62
2021/09/05 10:02:00;;;;;;;5.80;2.85;;;;;;;21.89;54.81;101050.37;2829026;83;21036;-62
2021/09/05 10:06:02;;;;;;;2.60;2.40;;;;;;;21.99;54.02;101046.89;2829266;83;20931;-62
2021/09/05 10:10:09;;;;;;;4.75;2.67;;;;;;;21.92;54.07;101044.09;2804622;84;21007;-62
2021/09/05 10:14:12;;;;;;;4.25;2.42;;;;;;;21.99;53.82;101049.59;2807099;83;20995;-64
2021/09/05 10:18:14;;;;;;;5.60;2.22;;;;;;;22.02;53.17;101048.40;2825258;83;21015;-63
2021/09/05 10:22:41;;;;;;;3.85;2.10;;;;;;;21.94;51.82;101055.59;2825214;84;20970;-64
2021/09/05 10:27:05;;;;;;;4.22;1.87;;;;;;;21.91;51.94;101053.25;2807347;85;21004;-64
2021/09/05 10:31:11;;;;;;;5.25;2.72;;;;;;;21.96;52.27;101051.33;2825270;84;21010;-64
2021/09/05 10:35:38;;;;;;;5.53;1.52;;;;;;;22.04;51.62;101052.62;2825433;83;20927;-64
2021/09/05 10:40:11;;;;;;;2.67;2.15;;;;;;;22.09;51.07;101049.34;2825192;84;21042;-63
2021/09/05 10:44:12;;;;;;;3.92;2.40;;;;;;;22.09;51.31;101039.86;2778298;86;20963;-63
2021/09/05 10:48:37;;;;;;;3.92;2.02;;;;;;;22.19;50.94;101029.61;2778559;84;21030;-63
2021/09/05 10:52:45;;;;;;;3.27;1.90;;;;;;;22.26;50.60;101040.03;2778260;85;20967;-65
2021/09/05 10:56:47;;;;;;;7.00;2.35;;;;;;;22.34;50.32;101039.11;2778500;85;20983;-63
2021/09/05 11:01:37;;;;;;;25.02;2.17;;;;;;;22.37;51.15;101048.75;2778266;85;21035;-64
2021/09/05 11:05:38;;;;;;;3.60;2.70;;;;;;;22.38;51.01;101045.01;2778182;85;20998;-63
2021/09/05 11:09:44;;;;;;;3.40;2.08;;;;;;;22.45;51.50;101043.22;2777984;83;20999;-63
2021/09/05 11:14:00;;;;;;;4.28;2.80;;;;;;;22.48;49.97;101048.83;2774836;85;21015;-63
2021/09/05 11:18:02;;;;;;;3.98;2.27;;;;;;;22.53;50.57;101039.62;2755817;85;21007;-62
2021/09/05 11:22:08;;;;;;;3.45;2.17;;;;;;;22.67;51.58;101037.42;2779476;84;20964;-63
2021/09/05 11:26:09;;;;;;;7.62;1.90;;;;;;;22.80;50.01;101039.47;2819099;84;20960;-63
2021/09/05 11:30:12;;;;;;;2.85;2.47;;;;;;;22.83;49.94;101043.69;2818976;83;21008;-62
2021/09/05 11:34:14;;;;;;;3.00;2.00;;;;;;;22.87;49.73;101036.84;2819039;84;21015;-62
2021/09/05 11:38:16;;;;;;;2.77;1.82;;;;;;;22.85;49.41;101044.34;2818928;83;20991;-61
2021/09/05 11:42:18;;;;;;;3.45;2.25;;;;;;;22.80;50.28;101040.83;2820819;84;20995;-62
2021/09/05 11:46:46;;;;;;;5.35;2.33;;;;;;;22.89;50.45;101037.50;2818581;83;20987;-61
2021/09/05 11:50:47;;;;;;;3.15;2.62;;;;;;;22.97;50.10;101041.45;2794624;84;21002;-61
2021/09/05 11:55:07;;;;;;;2.75;2.08;;;;;;;23.01;50.55;101033.78;2821521;84;21015;-61
2021/09/05 11:59:13;;;;;;;2.77;2.02;;;;;;;23.10;49.82;101035.36;2821438;83;20955;-61
2021/09/05 12:04:03;;;;;;;4.37;2.40;;;;;;;23.10;49.77;101041.29;2821419;84;20999;-61
2021/09/05 12:08:05;;;;;;;3.55;1.85;;;;;;;23.12;49.17;101037.87;2821380;84;20971;-61
2021/09/05 12:12:07;;;;;;;2.37;2.17;;;;;;;23.14;49.12;101037.16;2821473;84;21386;-61
2021/09/05 12:16:28;;;;;;;3.35;2.22;;;;;;;23.23;50.53;101030.59;2821365;84;20992;-61
2021/09/05 12:20:45;;;;;;;2.90;1.92;;;;;;;23.33;49.64;101027.61;2821810;84;21045;-61
2021/09/05 12:24:59;;;;;;;6.97;3.22;;;;;;;23.37;48.66;101034.83;2813310;84;21046;-61
2021/09/05 12:29:14;;;;;;;6.55;2.50;;;;;;;23.35;48.21;101024.18;2821680;83;20987;-61
2021/09/05 12:33:31;;;;;;;8.68;2.10;;;;;;;23.36;48.77;101018.22;2821936;83;20975;-61
2021/09/05 12:37:32;;;;;;;15.70;2.47;;;;;;;23.41;48.24;101023.93;2820800;84;21074;-61
2021/09/05 12:41:43;;;;;;;3.80;1.98;;;;;;;23.40;48.35;101022.25;2821724;84;20999;-63
2021/09/05 12:45:55;;;;;;;2.70;2.20;;;;;;;23.40;48.61;101019.53;2821760;82;21006;-62
2021/09/05 12:49:57;;;;;;;3.17;1.72;;;;;;;23.40;47.90;101008.67;2821563;84;21006;-63
2021/09/05 12:54:06;;;;;;;4.35;1.95;;;;;;;23.39;49.13;101017.32;2821730;82;20963;-62
2021/09/05 12:58:08;;;;;;;9.05;2.37;;;;;;;23.39;47.53;101013.78;2821519;84;21073;-63
2021/09/05 13:02:47;;;;;;;3.87;2.45;;;;;;;23.40;48.49;101011.39;2821653;82;20999;-62
2021/09/05 13:06:49;;;;;;;3.08;2.37;;;;;;;23.42;48.13;101017.47;2821717;84;20963;-62
2021/09/05 13:10:51;;;;;;;4.65;2.22;;;;;;;23.53;47.72;101017.47;2821839;83;21058;-64
2021/09/05 13:14:54;;;;;;;3.75;2.05;;;;;;;23.56;46.79;101014.86;2823949;83;21064;-63
2021/09/05 13:18:56;;;;;;;4.90;2.62;;;;;;;23.64;48.30;101017.45;2811637;82;21004;-63
2021/09/05 13:22:58;;;;;;;4.20;2.98;;;;;;;23.62;46.90;101015.45;2811773;82;21032;-63
2021/09/05 13:26:59;;;;;;;5.83;2.67;;;;;;;23.56;47.63;101013.00;2811407;82;20988;-63
2021/09/05 13:31:01;;;;;;;12.00;8.50;;;;;;;23.46;47.17;101009.25;2811547;82;20965;-63
2021/09/05 13:35:04;;;;;;;11.05;4.87;;;;;;;23.44;47.86;101007.25;2811753;82;20961;-63
2021/09/05 13:39:05;;;;;;;3.95;3.55;;;;;;;23.44;46.64;101007.25;2811688;82;21012;-63
2021/09/05 13:43:07;;;;;;;5.62;2.45;;;;;;;23.46;46.93;100995.67;2811799;82;21004;-63
2021/09/05 13:47:09;;;;;;;2.90;1.80;;;;;;;23.48;46.71;101000.89;2811697;82;20980;-63
2021/09/05 13:51:11;;;;;;;3.25;2.25;;;;;;;23.46;47.46;100990.75;2811654;81;20992;-62
2021/09/05 13:55:13;;;;;;;5.53;2.67;;;;;;;23.49;47.09;100991.75;2811335;82;20957;-62
2021/09/05 13:59:15;;;;;;;17.77;2.90;;;;;;;23.51;47.84;100990.50;2811457;82;20989;-62
2021/09/05 14:03:18;;;;;;;4.03;2.42;;;;;;;23.50;46.98;100986.64;2811563;82;21040;-62
2021/09/05 14:07:20;;;;;;;3.15;2.40;;;;;;;23.53;47.19;100987.06;2811791;82;20969;-62
2021/09/05 14:11:23;;;;;;;1.95;1.32;;;;;;;23.55;47.00;100986.88;2813647;82;21005;-62
2021/09/05 14:15:29;;;;;;;3.80;1.65;;;;;;;23.63;47.35;100988.63;2824692;82;21020;-61
2021/09/05 14:19:30;;;;;;;2.52;1.95;;;;;;;23.66;46.80;100990.95;2820394;84;21042;-62
2021/09/05 14:23:34;;;;;;;4.92;1.75;;;;;;;23.54;46.77;100994.17;2807527;85;20959;-62
2021/09/05 14:28:01;;;;;;;2.10;1.12;;;;;;;23.48;47.21;100999.03;2825433;84;21015;-61
2021/09/05 14:49:28;;;;;;;2.92;1.25;;;;;;;23.38;46.14;100986.28;2825394;84;20995;-61
2021/09/05 14:57:23;;;;;;;2.55;1.47;;;;;;;23.44;46.29;100981.46;2825430;84;21054;-62
2021/09/05 15:01:35;;;;;;;3.85;2.37;;;;;;;23.48;46.36;100985.46;2825226;84;20939;-62
2021/09/05 15:14:20;;;;;;;2.83;2.42;;;;;;;23.42;46.45;100979.46;2828284;84;20983;-62
2021/09/05 15:18:21;;;;;;;2.02;1.67;;;;;;;23.39;46.79;100977.14;2828902;84;21006;-61
2021/09/05 15:22:26;;;;;;;5.47;2.30;;;;;;;23.42;47.71;100979.46;2829003;83;20991;-62
2021/09/05 15:26:29;;;;;;;4.12;2.67;;;;;;;23.35;47.23;100976.67;2828631;84;20967;-62
2021/09/05 15:52:25;;;;;;;4.47;2.58;;;;;;;23.14;46.74;100976.64;2829969;83;40163;-63
2021/09/05 15:56:24;;;;;;;5.45;2.55;;;;;;;23.01;46.74;100976.81;2780653;82;21041;-63
2021/09/05 16:00:33;;;;;;;5.87;4.75;;;;;;;22.90;47.06;100968.66;2830319;84;20968;-63
2021/09/05 16:04:52;;;;;;;5.10;2.30;;;;;;;22.85;48.06;100966.18;2778619;83;21041;-62
2021/09/05 16:18:24;;;;;;;2.47;1.73;;;;;;;22.46;48.21;100974.97;2830629;82;21040;-62
2021/09/05 16:22:25;;;;;;;2.47;1.62;;;;;;;22.34;48.89;100974.06;2781033;84;20957;-63
2021/09/05 16:26:27;;;;;;;1.40;1.22;;;;;;;22.21;49.10;100971.19;2830462;82;21024;-63
2021/09/05 16:30:35;;;;;;;2.80;1.98;;;;;;;22.13;48.96;100973.97;2781094;82;21064;-62
2021/09/05 16:43:19;;;;;;;1.70;1.30;;;;;;;21.81;50.65;100979.03;2781070;85;21000;-73
2021/09/05 16:47:21;;;;;;;2.98;1.60;;;;;;;21.67;51.21;100976.59;2782177;85;21012;-72
2021/09/05 16:56:11;;;;;;;2.67;2.25;;;;;;;21.45;52.41;100980.98;2809489;84;21008;-73
2021/09/05 17:00:25;;;;;;;2.47;1.35;;;;;;;21.31;53.07;100979.88;2902959;81;20972;-72
2021/09/05 17:04:27;;;;;;;2.67;1.55;;;;;;;21.16;53.68;100981.70;2903480;82;20990;-72
2021/09/05 17:08:33;;;;;;;4.53;1.95;;;;;;;20.98;54.97;100982.82;2903207;82;21011;-73
2021/09/05 17:12:35;;;;;;;2.33;1.27;;;;;;;20.82;56.38;100986.42;2809454;85;21466;-72
2021/09/05 17:16:37;;;;;;;2.52;1.95;;;;;;;20.62;57.06;100996.28;2903437;82;20982;-72
2021/09/05 17:20:40;;;;;;;1.40;0.90;;;;;;;20.43;57.67;101003.45;2809363;85;21007;-72
2021/09/05 17:24:53;;;;;;;2.52;1.70;;;;;;;20.21;58.27;100999.97;2903545;82;20955;-72
2021/09/05 17:28:55;;;;;;;4.60;1.98;;;;;;;19.99;58.71;101002.86;2903374;82;20979;-72
2021/09/05 17:33:01;;;;;;;5.70;1.50;;;;;;;19.76;59.52;101000.00;2809533;85;21003;-72
2021/09/05 17:37:04;;;;;;;3.70;1.37;;;;;;;19.58;60.06;100998.80;2903256;81;20983;-72
2021/09/05 17:41:05;;;;;;;2.58;1.57;;;;;;;19.39;60.56;101006.20;2903208;82;21026;-72
2021/09/05 17:45:45;;;;;;;1.67;1.15;;;;;;;19.19;60.99;101015.94;2809157;85;21010;-72
2021/09/05 17:49:52;;;;;;;3.52;1.25;;;;;;;18.98;61.42;101013.19;2889939;80;21039;-72
2021/09/05 17:53:54;;;;;;;2.12;1.70;;;;;;;18.80;61.86;101009.72;2875032;82;20992;-72
2021/09/05 17:57:56;;;;;;;1.98;1.40;;;;;;;18.64;62.15;101009.98;2875071;83;21019;-72
2021/09/05 18:01:58;;;;;;;3.27;1.50;;;;;;;18.52;62.36;101024.76;2875297;82;20972;-72
2021/09/05 18:05:59;;;;;;;2.42;1.80;;;;;;;18.41;62.19;101021.32;2875433;83;20988;-73
2021/09/05 18:10:08;;;;;;;1.95;1.65;;;;;;;18.38;61.94;101025.69;2875250;82;20983;-73
2021/09/05 18:14:09;;;;;;;3.22;1.90;;;;;;;18.36;61.93;101036.27;2875575;82;20972;-72
2021/09/05 18:18:12;;;;;;;3.30;1.37;;;;;;;18.31;61.96;101038.59;2875351;83;21067;-73
2021/09/05 18:22:14;;;;;;;2.70;1.72;;;;;;;18.23;61.77;101048.80;2875403;83;21033;-72
2021/09/05 18:26:19;;;;;;;2.37;1.65;;;;;;;18.16;61.82;101046.41;2875504;82;20980;-72
2021/09/05 18:30:24;;;;;;;2.22;2.02;;;;;;;18.06;62.08;101052.72;2875565;83;20976;-72
2021/09/05 18:34:40;;;;;;;4.55;1.80;;;;;;;17.96;62.25;101049.26;2863868;82;21022;-63
2021/09/05 18:38:46;;;;;;;4.42;2.10;;;;;;;17.83;62.85;101055.88;2825692;83;21017;-65
2021/09/05 18:43:14;;;;;;;4.28;2.17;;;;;;;17.72;63.32;101064.20;2824880;84;20950;-62
2021/09/05 18:47:15;;;;;;;3.20;1.62;;;;;;;17.63;64.02;101063.27;2825451;83;21021;-63
2021/09/05 18:51:20;;;;;;;5.62;3.12;;;;;;;17.40;65.35;101062.86;2823244;84;21029;-64
2021/09/05 18:56:26;;;;;;;3.72;2.77;;;;;;;17.21;66.07;101059.30;2823277;84;21017;-62
2021/09/05 19:00:34;;;;;;;4.85;3.00;;;;;;;17.01;66.99;101063.09;2840453;83;21035;-64
2021/09/05 19:04:36;;;;;;;6.92;2.77;;;;;;;16.77;67.42;101071.16;2867131;83;21052;-64
2021/09/05 19:08:38;;;;;;;3.27;2.55;;;;;;;16.70;67.59;101066.86;2887933;82;20991;-64
2021/09/05 19:12:54;;;;;;;3.98;2.62;;;;;;;16.68;67.41;101071.02;2865272;83;21016;-64
2021/09/05 19:16:56;;;;;;;5.50;3.10;;;;;;;16.67;67.14;101068.50;2881326;82;20992;-64
2021/09/05 19:20:58;;;;;;;7.65;4.00;;;;;;;16.69;66.93;101072.72;2878984;82;20945;-64
2021/09/05 19:25:00;;;;;;;8.73;4.17;;;;;;;16.70;66.77;101071.75;2878894;82;20984;-63
2021/09/05 19:29:02;;;;;;;5.22;3.15;;;;;;;16.71;66.65;101076.61;2878919;82;21004;-63
2021/09/05 19:33:03;;;;;;;6.05;3.72;;;;;;;16.65;66.83;101082.06;2878822;82;21047;-63
2021/09/05 19:37:10;;;;;;;3.30;2.35;;;;;;;16.60;67.05;101090.20;2877243;82;20980;-64
2021/09/05 19:41:12;;;;;;;5.80;4.08;;;;;;;16.54;67.32;101087.63;2878649;82;20961;-64
2021/09/05 19:45:44;;;;;;;6.33;3.55;;;;;;;16.51;67.47;101090.10;2878722;82;21007;-64
2021/09/05 19:49:52;;;;;;;3.55;2.80;;;;;;;16.48;67.45;101092.22;2889496;82;21295;-64
2021/09/05 19:53:54;;;;;;;6.42;3.87;;;;;;;16.44;67.61;101088.14;2952689;80;21201;-64
2021/09/05 19:57:56;;;;;;;4.65;3.17;;;;;;;16.38;67.55;101093.10;2953282;80;21022;-64
2021/09/05 20:01:58;;;;;;;4.25;3.05;;;;;;;16.30;67.81;101099.67;2953216;80;20983;-64
2021/09/05 20:06:01;;;;;;;10.53;3.58;;;;;;;16.22;68.03;101096.39;2953145;80;20959;-64
2021/09/05 20:10:04;;;;;;;6.25;2.95;;;;;;;16.16;68.05;101106.33;2953153;80;20952;-64
2021/09/05 20:14:12;;;;;;;6.65;3.27;;;;;;;16.12;68.10;101096.88;2952878;80;20951;-64
2021/09/05 20:18:14;;;;;;;4.05;3.15;;;;;;;16.07;68.12;101098.63;2952899;80;20947;-64
2021/09/05 20:22:16;;;;;;;4.40;3.02;;;;;;;16.01;68.25;101100.55;2952891;80;20985;-63
2021/09/05 20:26:18;;;;;;;8.55;3.25;;;;;;;15.91;68.54;101099.22;2953105;80;20922;-64
2021/09/05 20:30:20;;;;;;;3.70;2.60;;;;;;;15.83;68.87;101102.56;2953374;80;20977;-64